SWR5CB EDDB-LSZH
Flight info
| Callsign | SWR5CB |
|---|---|
| Flight time | 1h 6m |
| Altitude | 30000 |
| Route | KISUC1K KISUC Z20 MAG Z92 ABGUS DCT LUXUX/N0458F310 DCT SWALM/N0458F300 DCT OMOGI/N0458F310 T721 RILAX |
| Aircraft | A320/M-SDE3FGHIRWY/LB1 |
Departure
| Time | 2026-05-07 14:35 |
|---|---|
| Airport | Berlin Brandenburg Airport (EDDB) |
Arrival
| Time | 2026-05-07 15:42 |
|---|---|
| Airport | Zürich Airport (LSZH) |
| Time | Latitude | Longitude | Altitude | Speed | Heading |
|---|---|---|---|---|---|
| 2026-05-07 13:58 | 52.36388 | 13.50595 | 155 ft | 0 kts | 69° |
| 2026-05-07 14:17 | 52.36388 | 13.50594 | 155 ft | 0 kts | 69° |
| 2026-05-07 14:24 | 52.36381 | 13.50566 | 155 ft | 4 kts | 69° |
| 2026-05-07 14:25 | 52.36372 | 13.50525 | 155 ft | 3 kts | 69° |
| 2026-05-07 14:25 | 52.36364 | 13.50491 | 155 ft | 3 kts | 84° |
| 2026-05-07 14:25 | 52.36369 | 13.50454 | 155 ft | 3 kts | 137° |
| 2026-05-07 14:25 | 52.36390 | 13.50434 | 155 ft | 3 kts | 159° |
| 2026-05-07 14:26 | 52.36415 | 13.50418 | 155 ft | 3 kts | 159° |
| 2026-05-07 14:26 | 52.36429 | 13.50410 | 155 ft | 0 kts | 159° |
| 2026-05-07 14:28 | 52.36375 | 13.50444 | 155 ft | 13 kts | 159° |
| 2026-05-07 14:28 | 52.36272 | 13.50509 | 155 ft | 18 kts | 158° |
| 2026-05-07 14:29 | 52.36150 | 13.50587 | 155 ft | 20 kts | 159° |
| 2026-05-07 14:29 | 52.36014 | 13.50674 | 155 ft | 22 kts | 158° |
| 2026-05-07 14:29 | 52.35867 | 13.50766 | 154 ft | 22 kts | 160° |
| 2026-05-07 14:29 | 52.35780 | 13.50659 | 154 ft | 17 kts | 250° |
| 2026-05-07 14:30 | 52.35739 | 13.50483 | 154 ft | 16 kts | 249° |
| 2026-05-07 14:30 | 52.35701 | 13.50321 | 154 ft | 15 kts | 249° |
| 2026-05-07 14:30 | 52.35665 | 13.50173 | 154 ft | 13 kts | 248° |
| 2026-05-07 14:30 | 52.35632 | 13.50038 | 154 ft | 12 kts | 249° |
| 2026-05-07 14:31 | 52.35599 | 13.49890 | 154 ft | 17 kts | 249° |
| 2026-05-07 14:31 | 52.35546 | 13.49669 | 154 ft | 25 kts | 250° |
| 2026-05-07 14:31 | 52.35476 | 13.49381 | 154 ft | 28 kts | 248° |
| 2026-05-07 14:31 | 52.35404 | 13.49074 | 154 ft | 30 kts | 249° |
| 2026-05-07 14:32 | 52.35326 | 13.48744 | 157 ft | 32 kts | 249° |
| 2026-05-07 14:32 | 52.35243 | 13.48395 | 154 ft | 34 kts | 249° |
| 2026-05-07 14:32 | 52.35156 | 13.48029 | 154 ft | 35 kts | 249° |
| 2026-05-07 14:32 | 52.35066 | 13.47648 | 154 ft | 37 kts | 249° |
| 2026-05-07 14:33 | 52.34972 | 13.47254 | 154 ft | 38 kts | 249° |
| 2026-05-07 14:33 | 52.34880 | 13.46866 | 154 ft | 25 kts | 249° |
| 2026-05-07 14:33 | 52.34823 | 13.46713 | 154 ft | 9 kts | 196° |
| 2026-05-07 14:33 | 52.34766 | 13.46732 | 154 ft | 8 kts | 156° |
| 2026-05-07 14:34 | 52.34721 | 13.46763 | 154 ft | 7 kts | 158° |
| 2026-05-07 14:34 | 52.34681 | 13.46790 | 154 ft | 6 kts | 158° |
| 2026-05-07 14:34 | 52.34646 | 13.46814 | 154 ft | 8 kts | 158° |
| 2026-05-07 14:34 | 52.34570 | 13.46907 | 154 ft | 16 kts | 108° |
| 2026-05-07 14:35 | 52.34604 | 13.47103 | 154 ft | 26 kts | 69° |
| 2026-05-07 14:35 | 52.34751 | 13.47726 | 154 ft | 94 kts | 69° |
| 2026-05-07 14:35 | 52.35062 | 13.49024 | 156 ft | 150 kts | 68° |
| 2026-05-07 14:35 | 52.35456 | 13.50670 | 791 ft | 147 kts | 69° |
| 2026-05-07 14:36 | 52.35507 | 13.52355 | 1412 ft | 165 kts | 109° |
| 2026-05-07 14:36 | 52.34692 | 13.53915 | 1759 ft | 196 kts | 137° |
| 2026-05-07 14:36 | 52.33533 | 13.55148 | 2451 ft | 205 kts | 156° |
| 2026-05-07 14:36 | 52.32076 | 13.55150 | 3040 ft | 224 kts | 198° |
| 2026-05-07 14:37 | 52.30648 | 13.53882 | 3471 ft | 246 kts | 214° |
| 2026-05-07 14:37 | 52.27829 | 13.50107 | 4965 ft | 271 kts | 227° |
| 2026-05-07 14:37 | 52.26795 | 13.47522 | 5882 ft | 276 kts | 248° |
| 2026-05-07 14:38 | 52.26325 | 13.44474 | 6810 ft | 280 kts | 267° |
| 2026-05-07 14:38 | 52.26314 | 13.41279 | 7697 ft | 283 kts | 272° |
| 2026-05-07 14:38 | 52.26322 | 13.38088 | 8620 ft | 287 kts | 271° |
| 2026-05-07 14:38 | 52.26319 | 13.34816 | 9568 ft | 290 kts | 270° |
| 2026-05-07 14:39 | 52.26312 | 13.31497 | 10454 ft | 294 kts | 270° |
| 2026-05-07 14:39 | 52.26305 | 13.28148 | 11340 ft | 297 kts | 270° |
| 2026-05-07 14:39 | 52.26259 | 13.24755 | 12163 ft | 301 kts | 264° |
| 2026-05-07 14:39 | 52.25811 | 13.21395 | 12975 ft | 306 kts | 250° |
| 2026-05-07 14:40 | 52.24857 | 13.18158 | 13310 ft | 328 kts | 238° |
| 2026-05-07 14:40 | 52.23621 | 13.14872 | 13524 ft | 352 kts | 238° |
| 2026-05-07 14:40 | 52.22301 | 13.11372 | 13795 ft | 370 kts | 238° |
| 2026-05-07 14:40 | 52.20960 | 13.07803 | 14344 ft | 377 kts | 238° |
| 2026-05-07 14:41 | 52.19585 | 13.04138 | 14991 ft | 382 kts | 238° |
| 2026-05-07 14:41 | 52.18194 | 13.00426 | 15646 ft | 385 kts | 238° |
| 2026-05-07 14:41 | 52.16868 | 12.96622 | 16298 ft | 389 kts | 245° |
| 2026-05-07 14:41 | 52.15951 | 12.92471 | 16943 ft | 392 kts | 256° |
| 2026-05-07 14:42 | 52.15349 | 12.88115 | 17600 ft | 396 kts | 258° |
| 2026-05-07 14:42 | 52.14741 | 12.83722 | 18254 ft | 399 kts | 258° |
| 2026-05-07 14:42 | 52.14119 | 12.79295 | 18826 ft | 403 kts | 258° |
| 2026-05-07 14:42 | 52.13491 | 12.74895 | 19386 ft | 406 kts | 258° |
| 2026-05-07 14:43 | 52.12848 | 12.70417 | 19949 ft | 409 kts | 258° |
| 2026-05-07 14:43 | 52.12198 | 12.65895 | 20494 ft | 411 kts | 258° |
| 2026-05-07 14:43 | 52.11545 | 12.61346 | 21030 ft | 414 kts | 257° |
| 2026-05-07 14:43 | 52.10888 | 12.56772 | 21546 ft | 417 kts | 258° |
| 2026-05-07 14:44 | 52.10225 | 12.52165 | 22052 ft | 420 kts | 258° |
| 2026-05-07 14:44 | 52.09556 | 12.47519 | 22523 ft | 424 kts | 258° |
| 2026-05-07 14:44 | 52.08880 | 12.42837 | 22980 ft | 427 kts | 257° |
| 2026-05-07 14:44 | 52.08194 | 12.38122 | 23438 ft | 430 kts | 257° |
| 2026-05-07 14:45 | 52.07511 | 12.33434 | 23849 ft | 433 kts | 257° |
| 2026-05-07 14:45 | 52.06817 | 12.28676 | 24277 ft | 434 kts | 257° |
| 2026-05-07 14:45 | 52.06119 | 12.23893 | 24657 ft | 436 kts | 257° |
| 2026-05-07 14:45 | 52.05413 | 12.19082 | 25009 ft | 439 kts | 257° |
| 2026-05-07 14:46 | 52.04699 | 12.14248 | 25357 ft | 441 kts | 257° |
| 2026-05-07 14:46 | 52.03982 | 12.09396 | 25705 ft | 444 kts | 257° |
| 2026-05-07 14:46 | 52.03257 | 12.04503 | 26059 ft | 446 kts | 257° |
| 2026-05-07 14:46 | 52.02529 | 11.99598 | 26377 ft | 449 kts | 257° |
| 2026-05-07 14:47 | 52.01793 | 11.94664 | 26698 ft | 451 kts | 257° |
| 2026-05-07 14:47 | 52.01048 | 11.89701 | 27023 ft | 453 kts | 256° |
| 2026-05-07 14:47 | 52.00306 | 11.84799 | 27316 ft | 455 kts | 256° |
| 2026-05-07 14:47 | 51.99547 | 11.79788 | 27587 ft | 458 kts | 256° |
| 2026-05-07 14:48 | 51.98765 | 11.74792 | 27961 ft | 457 kts | 255° |
| 2026-05-07 14:48 | 51.97937 | 11.69806 | 28262 ft | 459 kts | 254° |
| 2026-05-07 14:48 | 51.97073 | 11.64819 | 28524 ft | 460 kts | 253° |
| 2026-05-07 14:48 | 51.96196 | 11.59823 | 28762 ft | 462 kts | 253° |
| 2026-05-07 14:49 | 51.95315 | 11.54806 | 28999 ft | 463 kts | 254° |
| 2026-05-07 14:49 | 51.94435 | 11.49778 | 29287 ft | 464 kts | 254° |
| 2026-05-07 14:49 | 51.93561 | 11.44746 | 29599 ft | 463 kts | 254° |
| 2026-05-07 14:49 | 51.92705 | 11.39791 | 29924 ft | 462 kts | 254° |
| 2026-05-07 14:50 | 51.91839 | 11.34782 | 30240 ft | 462 kts | 254° |
| 2026-05-07 14:50 | 51.90971 | 11.29776 | 30469 ft | 462 kts | 254° |
| 2026-05-07 14:50 | 51.90105 | 11.24778 | 30762 ft | 460 kts | 254° |
| 2026-05-07 14:50 | 51.89242 | 11.19804 | 31022 ft | 458 kts | 254° |
| 2026-05-07 14:51 | 51.87515 | 11.09941 | 31082 ft | 454 kts | 254° |
| 2026-05-07 14:51 | 51.85795 | 11.00197 | 31078 ft | 453 kts | 254° |
| 2026-05-07 14:52 | 51.84059 | 10.90410 | 31081 ft | 453 kts | 254° |
| 2026-05-07 14:52 | 51.82319 | 10.80623 | 31082 ft | 453 kts | 254° |
| 2026-05-07 14:53 | 51.80569 | 10.70845 | 31081 ft | 452 kts | 253° |
| 2026-05-07 14:53 | 51.78816 | 10.61112 | 31085 ft | 451 kts | 253° |
| 2026-05-07 14:54 | 51.77053 | 10.51405 | 31086 ft | 450 kts | 253° |
| 2026-05-07 14:54 | 51.75299 | 10.41797 | 31080 ft | 449 kts | 253° |
| 2026-05-07 14:55 | 51.73530 | 10.32127 | 31068 ft | 449 kts | 253° |
| 2026-05-07 14:55 | 51.71758 | 10.22487 | 31061 ft | 449 kts | 253° |
| 2026-05-07 14:56 | 51.69983 | 10.12890 | 31076 ft | 447 kts | 252° |
| 2026-05-07 14:56 | 51.68207 | 10.03375 | 31074 ft | 446 kts | 253° |
| 2026-05-07 14:57 | 51.66422 | 9.93815 | 31069 ft | 445 kts | 253° |
| 2026-05-07 14:57 | 51.64326 | 9.84471 | 31073 ft | 444 kts | 241° |
| 2026-05-07 14:58 | 51.60537 | 9.76702 | 31061 ft | 443 kts | 221° |
| 2026-05-07 14:58 | 51.55303 | 9.71557 | 31050 ft | 443 kts | 201° |
| 2026-05-07 14:59 | 51.49582 | 9.67999 | 31040 ft | 444 kts | 201° |
| 2026-05-07 14:59 | 51.43821 | 9.64444 | 31039 ft | 444 kts | 201° |
| 2026-05-07 15:00 | 51.38004 | 9.61066 | 31034 ft | 445 kts | 194° |
| 2026-05-07 15:00 | 51.31981 | 9.58786 | 31044 ft | 446 kts | 193° |
| 2026-05-07 15:01 | 51.25984 | 9.56544 | 31051 ft | 446 kts | 193° |
| 2026-05-07 15:01 | 51.19936 | 9.54308 | 31044 ft | 446 kts | 193° |
| 2026-05-07 15:02 | 51.13878 | 9.52073 | 31034 ft | 447 kts | 194° |
| 2026-05-07 15:02 | 51.07807 | 9.49818 | 31034 ft | 449 kts | 194° |
| 2026-05-07 15:03 | 51.01715 | 9.47562 | 31033 ft | 450 kts | 194° |
| 2026-05-07 15:03 | 50.95649 | 9.45341 | 31042 ft | 451 kts | 194° |
| 2026-05-07 15:04 | 50.89531 | 9.43112 | 31035 ft | 452 kts | 194° |
| 2026-05-07 15:04 | 50.83402 | 9.40867 | 31039 ft | 452 kts | 194° |
| 2026-05-07 15:05 | 50.77265 | 9.38618 | 31041 ft | 453 kts | 194° |
| 2026-05-07 15:05 | 50.71154 | 9.36409 | 31044 ft | 454 kts | 194° |
| 2026-05-07 15:06 | 50.64998 | 9.34176 | 31044 ft | 454 kts | 194° |
| 2026-05-07 15:06 | 50.58837 | 9.31938 | 31043 ft | 454 kts | 194° |
| 2026-05-07 15:07 | 50.52683 | 9.29716 | 31044 ft | 454 kts | 194° |
| 2026-05-07 15:07 | 50.46521 | 9.27500 | 31042 ft | 454 kts | 194° |
| 2026-05-07 15:08 | 50.40409 | 9.25313 | 31045 ft | 454 kts | 194° |
| 2026-05-07 15:08 | 50.34251 | 9.23106 | 31047 ft | 454 kts | 194° |
| 2026-05-07 15:09 | 50.28088 | 9.20903 | 31038 ft | 454 kts | 194° |
| 2026-05-07 15:09 | 50.21931 | 9.18714 | 31041 ft | 454 kts | 194° |
| 2026-05-07 15:10 | 50.15818 | 9.16547 | 31042 ft | 454 kts | 194° |
| 2026-05-07 15:10 | 50.09658 | 9.14367 | 31043 ft | 454 kts | 194° |
| 2026-05-07 15:11 | 50.03501 | 9.12188 | 31037 ft | 454 kts | 194° |
| 2026-05-07 15:11 | 49.97363 | 9.10019 | 31039 ft | 453 kts | 194° |
| 2026-05-07 15:12 | 49.91232 | 9.07868 | 31048 ft | 454 kts | 194° |
| 2026-05-07 15:12 | 49.85105 | 9.05715 | 31048 ft | 454 kts | 194° |
| 2026-05-07 15:13 | 49.78942 | 9.03562 | 31044 ft | 454 kts | 194° |
| 2026-05-07 15:13 | 49.72773 | 9.01418 | 31045 ft | 454 kts | 194° |
| 2026-05-07 15:14 | 49.66658 | 8.99297 | 31039 ft | 453 kts | 194° |
| 2026-05-07 15:14 | 49.60493 | 8.97348 | 31029 ft | 454 kts | 192° |
| 2026-05-07 15:15 | 49.54268 | 8.95704 | 31033 ft | 454 kts | 191° |
| 2026-05-07 15:15 | 49.48036 | 8.94105 | 31038 ft | 454 kts | 191° |
| 2026-05-07 15:16 | 49.41820 | 8.92426 | 31040 ft | 453 kts | 192° |
| 2026-05-07 15:16 | 49.35655 | 8.90729 | 31033 ft | 453 kts | 192° |
| 2026-05-07 15:17 | 49.29462 | 8.89026 | 31034 ft | 453 kts | 192° |
| 2026-05-07 15:17 | 49.23250 | 8.87334 | 31033 ft | 453 kts | 192° |
| 2026-05-07 15:18 | 49.17043 | 8.85659 | 31019 ft | 453 kts | 192° |
| 2026-05-07 15:18 | 49.10847 | 8.83977 | 31029 ft | 452 kts | 192° |
| 2026-05-07 15:19 | 49.04698 | 8.82296 | 31030 ft | 452 kts | 192° |
| 2026-05-07 15:19 | 48.98515 | 8.80604 | 31029 ft | 451 kts | 192° |
| 2026-05-07 15:20 | 48.92333 | 8.78926 | 31020 ft | 451 kts | 192° |
| 2026-05-07 15:20 | 48.86157 | 8.77260 | 31023 ft | 450 kts | 192° |
| 2026-05-07 15:21 | 48.80035 | 8.75622 | 31029 ft | 450 kts | 192° |
| 2026-05-07 15:21 | 48.74024 | 8.74019 | 31019 ft | 450 kts | 192° |
| 2026-05-07 15:22 | 48.67873 | 8.72370 | 31026 ft | 449 kts | 192° |
| 2026-05-07 15:22 | 48.61717 | 8.70727 | 31034 ft | 449 kts | 192° |
| 2026-05-07 15:23 | 48.55609 | 8.69104 | 31036 ft | 449 kts | 192° |
| 2026-05-07 15:23 | 48.49458 | 8.67480 | 31036 ft | 449 kts | 192° |
| 2026-05-07 15:24 | 48.43314 | 8.65858 | 31033 ft | 448 kts | 192° |
| 2026-05-07 15:24 | 48.37167 | 8.64238 | 31024 ft | 448 kts | 193° |
| 2026-05-07 15:25 | 48.31055 | 8.62437 | 31023 ft | 447 kts | 194° |
| 2026-05-07 15:25 | 48.24960 | 8.60518 | 31028 ft | 447 kts | 194° |
| 2026-05-07 15:26 | 48.18896 | 8.58659 | 31027 ft | 448 kts | 194° |
| 2026-05-07 15:26 | 48.12786 | 8.56838 | 31030 ft | 448 kts | 193° |
| 2026-05-07 15:27 | 48.09732 | 8.55936 | 30862 ft | 448 kts | 193° |
| 2026-05-07 15:27 | 48.06677 | 8.55034 | 30319 ft | 446 kts | 193° |
| 2026-05-07 15:27 | 48.03621 | 8.54126 | 28990 ft | 450 kts | 193° |
| 2026-05-07 15:27 | 48.00522 | 8.53300 | 27661 ft | 455 kts | 188° |
| 2026-05-07 15:28 | 47.97347 | 8.53125 | 26388 ft | 460 kts | 179° |
| 2026-05-07 15:28 | 47.94209 | 8.53724 | 25175 ft | 464 kts | 169° |
| 2026-05-07 15:28 | 47.91114 | 8.55117 | 23969 ft | 467 kts | 160° |
| 2026-05-07 15:28 | 47.88202 | 8.57264 | 22657 ft | 469 kts | 150° |
| 2026-05-07 15:29 | 47.85460 | 8.59908 | 21353 ft | 470 kts | 148° |
| 2026-05-07 15:29 | 47.82743 | 8.62543 | 20475 ft | 461 kts | 148° |
| 2026-05-07 15:29 | 47.80057 | 8.65134 | 19522 ft | 457 kts | 148° |
| 2026-05-07 15:29 | 47.77434 | 8.67656 | 18534 ft | 440 kts | 148° |
| 2026-05-07 15:30 | 47.74879 | 8.70110 | 17350 ft | 433 kts | 149° |
| 2026-05-07 15:30 | 47.72377 | 8.72508 | 16628 ft | 426 kts | 149° |
| 2026-05-07 15:30 | 47.69904 | 8.74808 | 15792 ft | 423 kts | 154° |
| 2026-05-07 15:30 | 47.67110 | 8.76123 | 14991 ft | 414 kts | 176° |
| 2026-05-07 15:31 | 47.64328 | 8.75818 | 14248 ft | 405 kts | 197° |
| 2026-05-07 15:31 | 47.61790 | 8.74118 | 13436 ft | 398 kts | 216° |
| 2026-05-07 15:31 | 47.59852 | 8.71274 | 12659 ft | 392 kts | 236° |
| 2026-05-07 15:31 | 47.58709 | 8.67659 | 11906 ft | 386 kts | 255° |
| 2026-05-07 15:32 | 47.58483 | 8.63735 | 11198 ft | 383 kts | 275° |
| 2026-05-07 15:32 | 47.59181 | 8.60033 | 10985 ft | 366 kts | 294° |
| 2026-05-07 15:32 | 47.60556 | 8.56969 | 10855 ft | 350 kts | 311° |
| 2026-05-07 15:32 | 47.62246 | 8.54550 | 10716 ft | 324 kts | 314° |
| 2026-05-07 15:33 | 47.63824 | 8.52373 | 10577 ft | 300 kts | 315° |
| 2026-05-07 15:33 | 47.65307 | 8.50341 | 10403 ft | 290 kts | 315° |
| 2026-05-07 15:33 | 47.66777 | 8.48332 | 10137 ft | 285 kts | 315° |
| 2026-05-07 15:33 | 47.68221 | 8.46352 | 9930 ft | 282 kts | 315° |
| 2026-05-07 15:34 | 47.69661 | 8.44375 | 9801 ft | 281 kts | 315° |
| 2026-05-07 15:34 | 47.71065 | 8.42446 | 9676 ft | 269 kts | 314° |
| 2026-05-07 15:34 | 47.72413 | 8.40595 | 9539 ft | 259 kts | 314° |
| 2026-05-07 15:34 | 47.73567 | 8.38641 | 9311 ft | 248 kts | 296° |
| 2026-05-07 15:35 | 47.74042 | 8.36248 | 8966 ft | 241 kts | 270° |
| 2026-05-07 15:35 | 47.73767 | 8.33838 | 8586 ft | 236 kts | 245° |
| 2026-05-07 15:35 | 47.72866 | 8.31893 | 8215 ft | 225 kts | 227° |
| 2026-05-07 15:35 | 47.71808 | 8.30221 | 7858 ft | 225 kts | 226° |
| 2026-05-07 15:36 | 47.70577 | 8.28842 | 7483 ft | 221 kts | 208° |
| 2026-05-07 15:36 | 47.69105 | 8.28142 | 6915 ft | 228 kts | 189° |
| 2026-05-07 15:36 | 47.67495 | 8.28266 | 6483 ft | 236 kts | 167° |
| 2026-05-07 15:36 | 47.66005 | 8.29257 | 6168 ft | 237 kts | 147° |
| 2026-05-07 15:37 | 47.64764 | 8.30876 | 5851 ft | 236 kts | 138° |
| 2026-05-07 15:37 | 47.63568 | 8.32528 | 5539 ft | 235 kts | 138° |
| 2026-05-07 15:37 | 47.62374 | 8.34173 | 5223 ft | 234 kts | 138° |
| 2026-05-07 15:37 | 47.61199 | 8.35790 | 4918 ft | 234 kts | 137° |
| 2026-05-07 15:38 | 47.60006 | 8.37431 | 4591 ft | 234 kts | 138° |
| 2026-05-07 15:38 | 47.58819 | 8.39063 | 4278 ft | 233 kts | 138° |
| 2026-05-07 15:38 | 47.57639 | 8.40685 | 3964 ft | 231 kts | 137° |
| 2026-05-07 15:38 | 47.56472 | 8.42288 | 3645 ft | 225 kts | 137° |
| 2026-05-07 15:39 | 47.55346 | 8.43833 | 3366 ft | 217 kts | 137° |
| 2026-05-07 15:39 | 47.54275 | 8.45301 | 3111 ft | 200 kts | 137° |
| 2026-05-07 15:39 | 47.53307 | 8.46627 | 2828 ft | 180 kts | 137° |
| 2026-05-07 15:39 | 47.52424 | 8.47837 | 2596 ft | 166 kts | 137° |
| 2026-05-07 15:40 | 47.51616 | 8.48944 | 2387 ft | 153 kts | 137° |
| 2026-05-07 15:40 | 47.50864 | 8.49970 | 2131 ft | 147 kts | 136° |
| 2026-05-07 15:40 | 47.50109 | 8.50996 | 1886 ft | 145 kts | 135° |
| 2026-05-07 15:40 | 47.49367 | 8.51994 | 1746 ft | 141 kts | 136° |
| 2026-05-07 15:41 | 47.48662 | 8.52992 | 1568 ft | 141 kts | 133° |
| 2026-05-07 15:41 | 47.47944 | 8.53975 | 1409 ft | 137 kts | 135° |
| 2026-05-07 15:41 | 47.47352 | 8.54803 | 1390 ft | 95 kts | 137° |
| 2026-05-07 15:41 | 47.46973 | 8.55310 | 1390 ft | 55 kts | 138° |
| 2026-05-07 15:42 | 47.46731 | 8.55601 | 1398 ft | 37 kts | 152° |
| 2026-05-07 15:42 | 47.46552 | 8.55694 | 1397 ft | 20 kts | 167° |
| 2026-05-07 15:42 | 47.46428 | 8.55734 | 1398 ft | 16 kts | 162° |
| 2026-05-07 15:42 | 47.46346 | 8.55807 | 1403 ft | 12 kts | 137° |
| 2026-05-07 15:43 | 47.46295 | 8.55877 | 1405 ft | 8 kts | 136° |
| 2026-05-07 15:43 | 47.46259 | 8.55928 | 1406 ft | 6 kts | 136° |
| 2026-05-07 15:43 | 47.46202 | 8.55997 | 1409 ft | 15 kts | 154° |
| 2026-05-07 15:43 | 47.46112 | 8.55993 | 1407 ft | 12 kts | 187° |
| 2026-05-07 15:44 | 47.46034 | 8.55980 | 1407 ft | 11 kts | 186° |
| 2026-05-07 15:44 | 47.45923 | 8.55946 | 1410 ft | 22 kts | 199° |
| 2026-05-07 15:44 | 47.45832 | 8.55898 | 1410 ft | 8 kts | 199° |
| 2026-05-07 15:44 | 47.45770 | 8.55876 | 1410 ft | 12 kts | 186° |
| 2026-05-07 15:45 | 47.45688 | 8.55864 | 1411 ft | 12 kts | 185° |
| 2026-05-07 15:45 | 47.45643 | 8.55772 | 1409 ft | 18 kts | 276° |
| 2026-05-07 15:45 | 47.45661 | 8.55546 | 1403 ft | 25 kts | 277° |
| 2026-05-07 15:45 | 47.45678 | 8.55304 | 1407 ft | 17 kts | 276° |
| 2026-05-07 15:46 | 47.45523 | 8.55286 | 1403 ft | 13 kts | 155° |
| 2026-05-07 15:46 | 47.45448 | 8.55338 | 1402 ft | 11 kts | 154° |
| 2026-05-07 15:46 | 47.45379 | 8.55386 | 1401 ft | 13 kts | 154° |
| 2026-05-07 15:47 | 47.45301 | 8.55455 | 1405 ft | 13 kts | 120° |
| 2026-05-07 15:47 | 47.45277 | 8.55582 | 1406 ft | 13 kts | 97° |
| 2026-05-07 15:47 | 47.45266 | 8.55728 | 1407 ft | 16 kts | 97° |
| 2026-05-07 15:47 | 47.45252 | 8.55903 | 1407 ft | 16 kts | 96° |
| 2026-05-07 15:48 | 47.45245 | 8.55998 | 1407 ft | 5 kts | 102° |
| 2026-05-07 15:48 | 47.45226 | 8.56001 | 1408 ft | 5 kts | 180° |
| 2026-05-07 15:48 | 47.45180 | 8.55994 | 1407 ft | 6 kts | 186° |
| 2026-05-07 15:48 | 47.45168 | 8.55992 | 1407 ft | 2 kts | 186° |
| 2026-05-07 15:49 | 47.45159 | 8.55991 | 1407 ft | 1 kts | 186° |
| 2026-05-07 15:49 | 47.45158 | 8.55991 | 1407 ft | 0 kts | 186° |